Gran Canaria, Spain
Current Conditions -  °F | °C
As of 9:30 PM on Friday 28 Nov 2014 (Local Time) from GCLP Reporting Station
Scattered Clouds Scattered Clouds  
Wind Chill: 70°   Ceiling: Unl
Heat Index: 70°   Visibility: 6mi
Dew Point: 54°   Wind: 21mph
Humidity: 56%   Direction: 340°NNW
Pressure: 29.5"   Gusts: NA
Location:  28.14°N, 15.43°W
Report Text: GCLP 282130Z 34018KT 9999 FEW020 SCT060 21/12 Q0999 NOSIG
Loading
Personal Weather Stations






























Interactive Weather Map New forecast layout! Learn more

10-Day Weather Forecast

Advertisements
Track Severe Weather on mobile